createdAt,value
2018-07-07T00:00:20.747Z,17.87
2018-07-07T00:02:49.394Z,17.89
2018-07-07T00:05:18.342Z,17.84
2018-07-07T00:07:47.057Z,17.84
2018-07-07T00:10:16.221Z,17.77
2018-07-07T00:12:45.151Z,17.77
2018-07-07T00:15:18.227Z,17.78
2018-07-07T00:17:47.444Z,17.80
2018-07-07T00:20:16.548Z,17.72
2018-07-07T00:22:45.601Z,17.71
2018-07-07T00:25:15.820Z,17.73
2018-07-07T00:27:45.457Z,17.69
2018-07-07T00:30:14.138Z,17.71
2018-07-07T00:32:42.850Z,17.67
2018-07-07T00:35:11.813Z,17.68
2018-07-07T00:37:40.551Z,17.66
2018-07-07T00:40:10.093Z,17.65
2018-07-07T00:42:39.427Z,17.64
2018-07-07T00:45:08.129Z,17.64
2018-07-07T00:47:36.823Z,17.61
2018-07-07T00:50:05.854Z,16.55
2018-07-07T00:52:34.796Z,17.56
2018-07-07T00:55:03.833Z,17.55
2018-07-07T00:57:32.495Z,17.54
2018-07-07T01:00:01.232Z,17.53
2018-07-07T01:02:29.924Z,17.53
2018-07-07T01:04:58.570Z,17.60
2018-07-07T01:07:27.232Z,17.62
2018-07-07T01:09:55.885Z,17.58
2018-07-07T01:12:24.619Z,17.58
2018-07-07T01:14:53.249Z,17.57
2018-07-07T01:17:22.069Z,17.52
2018-07-07T01:19:50.880Z,17.50
2018-07-07T01:22:19.528Z,17.45
2018-07-07T01:24:48.240Z,17.45
2018-07-07T01:27:16.915Z,17.47
2018-07-07T01:29:45.593Z,17.46
2018-07-07T01:32:14.285Z,17.47
2018-07-07T01:34:42.975Z,17.49
2018-07-07T01:37:11.552Z,17.50
2018-07-07T01:39:40.257Z,17.45
2018-07-07T01:42:09.244Z,17.43
2018-07-07T01:44:37.938Z,17.42
2018-07-07T01:47:06.577Z,17.47
2018-07-07T01:49:35.232Z,17.50
2018-07-07T01:52:03.896Z,17.53
2018-07-07T01:54:32.608Z,17.53
2018-07-07T01:57:01.382Z,17.50
2018-07-07T01:59:30.014Z,17.53
2018-07-07T02:01:59.625Z,17.53
2018-07-07T02:04:28.541Z,17.59
2018-07-07T02:06:57.123Z,17.62
2018-07-07T02:09:25.728Z,17.65
2018-07-07T02:11:54.399Z,17.56
2018-07-07T02:14:23.087Z,17.51
2018-07-07T02:16:51.793Z,17.53
2018-07-07T02:19:20.565Z,17.48
2018-07-07T02:21:49.193Z,17.46
2018-07-07T02:24:17.868Z,17.41
2018-07-07T02:26:46.763Z,17.45
2018-07-07T02:29:15.395Z,17.41
2018-07-07T02:31:44.010Z,17.32
2018-07-07T02:34:12.700Z,17.32
2018-07-07T02:36:41.574Z,17.28
2018-07-07T02:39:10.250Z,17.27
2018-07-07T02:41:38.999Z,17.18
2018-07-07T02:44:07.495Z,17.17
2018-07-07T02:46:36.329Z,17.20
2018-07-07T02:49:04.919Z,17.17
2018-07-07T02:51:33.640Z,17.16
2018-07-07T02:54:02.399Z,17.09
2018-07-07T02:56:31.195Z,17.08
2018-07-07T02:58:59.858Z,17.13
2018-07-07T03:01:28.674Z,17.17
2018-07-07T03:03:57.264Z,17.18
2018-07-07T03:06:25.946Z,17.18
2018-07-07T03:08:54.763Z,17.13
2018-07-07T03:11:23.439Z,17.17
2018-07-07T03:13:52.481Z,17.22
2018-07-07T03:16:21.097Z,17.24
2018-07-07T03:18:49.885Z,17.20
2018-07-07T03:21:18.653Z,17.26
2018-07-07T03:23:47.231Z,17.31
2018-07-07T03:26:15.999Z,17.36
2018-07-07T03:28:44.778Z,17.41
2018-07-07T03:31:13.560Z,17.39
2018-07-07T03:33:42.194Z,17.34
2018-07-07T03:36:10.805Z,17.37
2018-07-07T03:38:39.537Z,17.29
2018-07-07T03:41:08.164Z,17.29
2018-07-07T03:43:37.136Z,17.32
2018-07-07T03:46:05.980Z,17.36
2018-07-07T03:48:34.656Z,17.36
2018-07-07T03:51:03.339Z,17.46
2018-07-07T03:53:31.966Z,17.50
2018-07-07T03:56:00.718Z,17.49
2018-07-07T03:58:29.459Z,17.49
2018-07-07T04:00:58.071Z,17.55
2018-07-07T04:03:26.798Z,17.55
2018-07-07T04:05:55.509Z,17.48
2018-07-07T04:08:24.242Z,17.49
2018-07-07T04:10:52.942Z,17.45
2018-07-07T04:13:21.529Z,17.55
2018-07-07T04:15:50.227Z,17.56
2018-07-07T04:18:25.781Z,17.64
2018-07-07T04:20:54.423Z,17.63
2018-07-07T04:23:23.028Z,17.65
2018-07-07T04:25:51.740Z,17.60
2018-07-07T04:28:20.504Z,17.62
2018-07-07T04:30:55.436Z,17.64
2018-07-07T04:33:24.167Z,17.61
2018-07-07T04:35:52.897Z,17.60
2018-07-07T04:38:21.532Z,17.63
2018-07-07T04:40:50.532Z,17.62
2018-07-07T04:43:19.865Z,17.62
2018-07-07T04:45:48.583Z,17.64
2018-07-07T04:48:17.323Z,17.65
2018-07-07T04:50:46.477Z,17.60
2018-07-07T04:53:15.165Z,17.51
2018-07-07T04:55:43.793Z,17.49
2018-07-07T04:58:12.420Z,17.47
2018-07-07T05:00:41.131Z,17.43
2018-07-07T05:03:09.792Z,17.41
2018-07-07T05:05:38.428Z,17.41
2018-07-07T05:08:07.030Z,17.45
2018-07-07T05:10:35.723Z,17.46
2018-07-07T05:13:04.430Z,17.50
2018-07-07T05:15:33.133Z,17.56
2018-07-07T05:18:01.850Z,17.58
2018-07-07T05:20:30.685Z,17.68
2018-07-07T05:22:59.349Z,17.64
2018-07-07T05:25:27.927Z,17.61
2018-07-07T05:27:56.589Z,17.74
2018-07-07T05:30:25.308Z,17.83
2018-07-07T05:32:53.931Z,17.84
2018-07-07T05:35:22.686Z,17.77
2018-07-07T05:37:51.400Z,17.78
2018-07-07T05:40:20.116Z,17.83
2018-07-07T05:42:49.098Z,17.95
2018-07-07T05:45:17.800Z,17.94
2018-07-07T05:47:46.609Z,18.01
2018-07-07T05:50:15.213Z,18.14
2018-07-07T05:52:43.882Z,18.16
2018-07-07T05:55:12.565Z,18.34
2018-07-07T05:57:41.167Z,18.39
2018-07-07T06:00:09.945Z,18.27
2018-07-07T06:02:38.945Z,18.31
2018-07-07T06:05:07.588Z,18.44
2018-07-07T06:07:36.334Z,18.41
2018-07-07T06:10:04.944Z,18.46
2018-07-07T06:12:33.569Z,18.45
2018-07-07T06:15:02.292Z,18.43
2018-07-07T06:17:30.883Z,18.44
2018-07-07T06:19:59.615Z,18.45
2018-07-07T06:22:28.333Z,18.47
2018-07-07T06:24:56.876Z,18.58
2018-07-07T06:27:25.491Z,18.54
2018-07-07T06:29:54.547Z,18.61
2018-07-07T06:32:23.351Z,18.65
2018-07-07T06:34:52.082Z,18.77
2018-07-07T06:37:20.981Z,18.85
2018-07-07T06:39:49.542Z,18.92
2018-07-07T06:42:18.145Z,18.88
2018-07-07T06:44:46.855Z,18.94
2018-07-07T06:47:15.438Z,18.94
2018-07-07T06:49:44.232Z,19.02
2018-07-07T06:52:12.926Z,19.15
2018-07-07T06:54:41.581Z,19.15
2018-07-07T06:57:10.209Z,19.21
2018-07-07T06:59:38.950Z,19.30
2018-07-07T07:02:07.698Z,19.29
2018-07-07T07:04:36.349Z,19.31
2018-07-07T07:07:05.031Z,19.28
2018-07-07T07:09:33.749Z,19.31
2018-07-07T07:12:02.462Z,19.28
2018-07-07T07:14:31.137Z,19.34
2018-07-07T07:16:59.764Z,19.29
2018-07-07T07:19:28.470Z,19.20
2018-07-07T07:21:57.378Z,19.31
2018-07-07T07:24:26.000Z,19.39
2018-07-07T07:26:54.611Z,19.51
2018-07-07T07:29:23.266Z,19.44
2018-07-07T07:31:51.989Z,19.50
2018-07-07T07:34:20.601Z,19.43
2018-07-07T07:36:49.640Z,19.49
2018-07-07T07:39:18.306Z,19.50
2018-07-07T07:41:47.113Z,19.42
2018-07-07T07:44:15.733Z,19.54
2018-07-07T07:46:44.411Z,19.48
2018-07-07T07:49:13.148Z,19.46
2018-07-07T07:51:42.130Z,19.48
2018-07-07T07:54:10.778Z,19.42
2018-07-07T07:56:39.675Z,19.47
2018-07-07T07:59:08.395Z,19.55
2018-07-07T08:01:37.012Z,19.64
2018-07-07T08:04:05.787Z,19.67
2018-07-07T08:06:34.496Z,19.75
2018-07-07T08:09:03.134Z,19.71
2018-07-07T08:11:31.894Z,19.80
2018-07-07T08:14:00.658Z,19.81
2018-07-07T08:16:29.478Z,19.81
2018-07-07T08:18:58.146Z,19.77
2018-07-07T08:21:26.753Z,19.83
2018-07-07T08:23:56.154Z,19.90
2018-07-07T08:26:24.782Z,19.86
2018-07-07T08:28:53.850Z,19.87
2018-07-07T08:31:22.696Z,19.53
2018-07-07T08:33:51.318Z,19.86
2018-07-07T08:36:20.020Z,19.87
2018-07-07T08:38:49.691Z,19.93
2018-07-07T08:41:18.487Z,19.87
2018-07-07T08:43:47.254Z,19.85
2018-07-07T08:46:15.860Z,19.76
2018-07-07T08:48:44.485Z,19.76
2018-07-07T08:51:13.190Z,19.93
2018-07-07T08:53:42.161Z,20.44
2018-07-07T08:56:10.829Z,20.86
2018-07-07T08:58:39.571Z,21.22
2018-07-07T09:01:08.212Z,21.48
2018-07-07T09:03:36.974Z,21.48
2018-07-07T09:06:05.964Z,21.26
2018-07-07T09:08:34.619Z,21.32
2018-07-07T09:11:03.308Z,21.25
2018-07-07T09:13:32.084Z,21.20
2018-07-07T09:16:00.736Z,21.17
2018-07-07T09:18:29.544Z,21.14
2018-07-07T09:20:58.230Z,21.21
2018-07-07T09:23:26.893Z,21.52
2018-07-07T09:25:55.500Z,22.03
2018-07-07T09:28:24.157Z,21.95
2018-07-07T09:30:52.815Z,21.74
2018-07-07T09:33:21.621Z,21.41
2018-07-07T09:35:50.256Z,21.45
2018-07-07T09:38:19.184Z,21.87
2018-07-07T09:40:47.871Z,22.17
2018-07-07T09:43:16.633Z,22.23
2018-07-07T09:45:45.394Z,22.39
2018-07-07T09:48:14.040Z,22.39
2018-07-07T09:50:42.683Z,22.27
2018-07-07T09:53:11.325Z,22.06
2018-07-07T09:55:40.133Z,21.90
2018-07-07T09:58:08.917Z,21.88
2018-07-07T10:00:42.470Z,21.92
2018-07-07T10:03:17.702Z,22.04
2018-07-07T10:05:46.356Z,22.15
2018-07-07T10:08:15.005Z,22.11
2018-07-07T10:10:44.110Z,22.11
2018-07-07T10:13:12.734Z,21.92
2018-07-07T10:15:41.470Z,21.81
2018-07-07T10:18:10.153Z,21.79
2018-07-07T10:20:38.983Z,21.72
2018-07-07T10:23:07.747Z,21.54
2018-07-07T10:25:36.429Z,21.56
2018-07-07T10:28:05.010Z,21.52
2018-07-07T10:30:33.780Z,21.49
2018-07-07T10:33:02.476Z,21.36
2018-07-07T10:35:31.301Z,21.20
2018-07-07T10:38:00.081Z,21.17
2018-07-07T10:40:28.795Z,21.19
2018-07-07T10:42:57.450Z,21.10
2018-07-07T10:45:26.155Z,20.98
2018-07-07T10:47:54.858Z,20.98
2018-07-07T10:50:23.500Z,20.98
2018-07-07T10:52:52.343Z,20.96
2018-07-07T10:55:21.155Z,20.99
2018-07-07T10:57:49.980Z,21.03
2018-07-07T11:00:24.918Z,20.95
2018-07-07T11:02:53.617Z,20.92
2018-07-07T11:05:22.525Z,20.84
2018-07-07T11:07:51.173Z,20.83
2018-07-07T11:10:20.113Z,20.78
2018-07-07T11:12:48.662Z,20.78
2018-07-07T11:15:17.277Z,20.77
2018-07-07T11:17:46.107Z,20.78
2018-07-07T11:20:14.804Z,20.71
2018-07-07T11:22:43.447Z,20.75
2018-07-07T11:25:12.036Z,20.74
2018-07-07T11:27:40.760Z,20.78
2018-07-07T11:30:09.373Z,20.83
2018-07-07T11:32:38.199Z,20.95
2018-07-07T11:35:06.885Z,21.02
2018-07-07T11:37:35.483Z,21.23
2018-07-07T11:40:04.198Z,21.56
2018-07-07T11:42:32.887Z,21.74
2018-07-07T11:45:01.511Z,21.69
2018-07-07T11:47:30.194Z,21.81
2018-07-07T11:49:59.039Z,21.82
2018-07-07T11:52:27.796Z,21.84
2018-07-07T11:54:56.469Z,21.99
2018-07-07T11:57:25.111Z,22.01
2018-07-07T11:59:53.845Z,21.96
2018-07-07T12:02:22.462Z,21.87
2018-07-07T12:04:51.454Z,21.63
2018-07-07T12:07:20.003Z,21.64
2018-07-07T12:09:48.795Z,21.51
2018-07-07T12:12:23.874Z,21.57
2018-07-07T12:14:52.939Z,21.59
2018-07-07T12:17:21.623Z,21.71
2018-07-07T12:19:50.207Z,21.79
2018-07-07T12:22:18.868Z,22.29
2018-07-07T12:24:47.539Z,22.76
2018-07-07T12:27:16.185Z,23.12
2018-07-07T12:29:44.851Z,23.42
2018-07-07T12:32:13.647Z,23.57
2018-07-07T12:34:42.461Z,23.70
2018-07-07T12:37:11.142Z,23.75
2018-07-07T12:39:40.008Z,23.42
2018-07-07T12:42:08.752Z,23.52
2018-07-07T12:44:37.813Z,23.45
2018-07-07T12:47:06.745Z,23.09
2018-07-07T12:49:35.323Z,22.83
2018-07-07T12:52:04.073Z,22.88
2018-07-07T12:54:32.805Z,22.93
2018-07-07T12:57:01.417Z,22.80
2018-07-07T12:59:30.133Z,22.66
2018-07-07T13:01:58.816Z,22.47
2018-07-07T13:04:27.444Z,22.36
2018-07-07T13:06:56.100Z,22.12
2018-07-07T13:09:25.067Z,21.97
2018-07-07T13:11:53.748Z,21.79
2018-07-07T13:14:22.564Z,21.62
2018-07-07T13:16:51.443Z,21.42
2018-07-07T13:19:20.086Z,21.20
2018-07-07T13:21:48.761Z,21.04
2018-07-07T13:24:17.483Z,21.04
2018-07-07T13:26:46.231Z,21.08
2018-07-07T13:29:14.877Z,21.23
2018-07-07T13:31:43.720Z,21.13
2018-07-07T13:34:12.408Z,20.91
2018-07-07T13:36:41.304Z,20.69
2018-07-07T13:39:10.131Z,20.58
2018-07-07T13:41:38.885Z,20.40
2018-07-07T13:44:07.515Z,20.21
2018-07-07T13:46:36.205Z,20.18
2018-07-07T13:49:04.885Z,20.15
2018-07-07T13:51:33.634Z,20.25
2018-07-07T13:54:02.322Z,21.37
2018-07-07T13:56:30.975Z,22.90
2018-07-07T13:58:59.761Z,22.07
2018-07-07T14:01:28.556Z,21.39
2018-07-07T14:03:57.138Z,21.21
2018-07-07T14:06:25.728Z,20.94
2018-07-07T14:08:54.543Z,20.64
2018-07-07T14:11:23.307Z,20.38
2018-07-07T14:13:52.104Z,20.44
2018-07-07T14:16:20.771Z,19.52
2018-07-07T14:18:49.429Z,20.04
2018-07-07T14:21:18.133Z,19.86
2018-07-07T14:23:46.729Z,19.80
2018-07-07T14:26:15.377Z,19.67
2018-07-07T14:28:44.040Z,19.53
2018-07-07T14:31:12.743Z,19.46
2018-07-07T14:33:41.335Z,19.32
2018-07-07T14:36:09.978Z,19.20
2018-07-07T14:38:38.928Z,19.14
2018-07-07T14:41:16.509Z,19.14
2018-07-07T14:43:54.215Z,19.11
2018-07-07T14:46:23.243Z,18.99
2018-07-07T14:48:52.358Z,18.92
2018-07-07T14:51:21.016Z,18.94
2018-07-07T14:53:49.801Z,18.92
2018-07-07T14:56:19.792Z,18.90
2018-07-07T14:58:48.773Z,18.86
2018-07-07T15:01:17.519Z,19.00
2018-07-07T15:03:46.451Z,19.28
2018-07-07T15:06:15.079Z,19.80
2018-07-07T15:08:43.912Z,19.62
2018-07-07T15:11:12.690Z,20.91
2018-07-07T15:13:41.288Z,20.49
2018-07-07T15:16:09.991Z,19.84
2018-07-07T15:18:38.753Z,19.63
2018-07-07T15:21:07.392Z,19.52
2018-07-07T15:23:36.117Z,19.48
2018-07-07T15:26:04.879Z,20.03
2018-07-07T15:28:34.097Z,20.76
2018-07-07T15:31:02.835Z,20.91
2018-07-07T15:33:31.575Z,20.75
2018-07-07T15:36:00.235Z,20.73
2018-07-07T15:38:29.003Z,20.65
2018-07-07T15:40:57.615Z,20.60
2018-07-07T15:43:26.514Z,20.56
2018-07-07T15:45:55.419Z,20.50
2018-07-07T15:48:24.049Z,20.32
2018-07-07T15:50:53.098Z,20.45
2018-07-07T15:53:21.784Z,20.41
2018-07-07T15:55:50.513Z,20.56
2018-07-07T15:58:19.112Z,20.49
2018-07-07T16:00:47.828Z,20.55
2018-07-07T16:03:16.784Z,20.54
2018-07-07T16:05:45.607Z,20.46
2018-07-07T16:08:14.247Z,20.43
2018-07-07T16:10:42.861Z,20.34
2018-07-07T16:13:11.561Z,20.18
2018-07-07T16:15:40.304Z,20.01
2018-07-07T16:18:09.001Z,19.99
2018-07-07T16:20:37.734Z,20.01
2018-07-07T16:23:06.381Z,19.94
2018-07-07T16:25:35.097Z,19.82
2018-07-07T16:28:03.856Z,19.61
2018-07-07T16:30:32.435Z,19.47
2018-07-07T16:33:01.074Z,19.47
2018-07-07T16:35:29.735Z,19.40
2018-07-07T16:37:58.419Z,19.24
2018-07-07T16:40:27.119Z,19.21
2018-07-07T16:42:55.907Z,19.04
2018-07-07T16:45:24.656Z,18.94
2018-07-07T16:47:53.637Z,18.77
2018-07-07T16:50:22.370Z,18.64
2018-07-07T16:52:51.155Z,18.59
2018-07-07T16:55:19.754Z,18.60
2018-07-07T16:57:48.495Z,18.57
2018-07-07T17:00:17.253Z,18.59
2018-07-07T17:02:45.874Z,18.55
2018-07-07T17:05:15.045Z,18.49
2018-07-07T17:07:43.804Z,18.45
2018-07-07T17:10:12.621Z,18.41
2018-07-07T17:12:41.820Z,18.44
2018-07-07T17:15:10.518Z,18.44
2018-07-07T17:17:39.369Z,18.41
2018-07-07T17:20:08.430Z,18.41
2018-07-07T17:22:37.514Z,18.33
2018-07-07T17:25:06.110Z,18.30
2018-07-07T17:27:34.840Z,18.28
2018-07-07T17:30:03.533Z,18.23
2018-07-07T17:32:32.167Z,18.21
2018-07-07T17:35:01.766Z,18.20
2018-07-07T17:37:30.468Z,18.20
2018-07-07T17:39:59.097Z,18.20
2018-07-07T17:42:27.862Z,18.18
2018-07-07T17:44:56.959Z,18.18
2018-07-07T17:47:25.636Z,18.14
2018-07-07T17:49:54.510Z,18.07
2018-07-07T17:52:23.472Z,18.13
2018-07-07T17:54:52.321Z,18.14
2018-07-07T17:57:20.997Z,18.18
2018-07-07T17:59:49.638Z,18.13
2018-07-07T18:02:18.276Z,18.08
2018-07-07T18:04:47.141Z,18.04
2018-07-07T18:07:16.017Z,18.03
2018-07-07T18:09:44.603Z,18.07
2018-07-07T18:12:13.215Z,18.06
2018-07-07T18:14:41.997Z,17.99
2018-07-07T18:17:10.602Z,18.01
2018-07-07T18:19:39.415Z,18.01
2018-07-07T18:22:08.109Z,17.97
2018-07-07T18:24:36.710Z,18.02
2018-07-07T18:27:05.355Z,18.03
2018-07-07T18:29:34.039Z,18.01
2018-07-07T18:32:02.680Z,18.03
2018-07-07T18:34:31.336Z,18.04
2018-07-07T18:36:59.989Z,18.06
2018-07-07T18:39:28.747Z,18.12
2018-07-07T18:41:57.416Z,18.14
2018-07-07T18:44:26.112Z,18.16
2018-07-07T18:46:54.989Z,18.15
2018-07-07T18:49:23.791Z,18.17
2018-07-07T18:51:52.414Z,18.15
2018-07-07T18:54:21.099Z,18.11
2018-07-07T18:56:49.914Z,18.10
2018-07-07T18:59:18.847Z,18.02
2018-07-07T19:01:47.590Z,18.00
2018-07-07T19:04:16.628Z,18.00
2018-07-07T19:06:45.303Z,18.01
2018-07-07T19:09:14.091Z,17.88
2018-07-07T19:11:42.657Z,17.88
2018-07-07T19:14:11.394Z,17.87
2018-07-07T19:16:40.157Z,17.83
2018-07-07T19:19:08.862Z,17.82
2018-07-07T19:21:42.829Z,17.83
2018-07-07T19:24:16.734Z,17.82
2018-07-07T19:26:50.510Z,17.79
2018-07-07T19:29:19.792Z,17.79
2018-07-07T19:31:53.657Z,17.79
2018-07-07T19:34:27.619Z,17.78
2018-07-07T19:37:01.778Z,17.78
2018-07-07T19:39:30.471Z,17.75
2018-07-07T19:41:59.202Z,17.76
2018-07-07T19:44:27.862Z,17.78
2018-07-07T19:46:56.990Z,17.79
2018-07-07T19:49:25.734Z,17.72
2018-07-07T19:51:54.427Z,17.76
2018-07-07T19:54:23.044Z,17.72
2018-07-07T19:56:51.691Z,17.72
2018-07-07T19:59:20.422Z,17.71
2018-07-07T20:01:49.201Z,17.70
2018-07-07T20:04:18.058Z,17.65
2018-07-07T20:06:46.677Z,17.65
2018-07-07T20:09:15.569Z,17.63
2018-07-07T20:11:44.189Z,17.59
2018-07-07T20:14:18.239Z,17.59
2018-07-07T20:17:01.854Z,17.56
2018-07-07T20:20:42.635Z,17.53
2018-07-07T20:23:14.487Z,17.48
2018-07-07T20:25:47.256Z,17.45
2018-07-07T20:28:21.335Z,17.43
2018-07-07T20:30:49.969Z,17.41
2018-07-07T20:33:18.593Z,17.41
2018-07-07T20:35:47.635Z,17.43
2018-07-07T20:38:16.320Z,17.37
2018-07-07T20:40:44.947Z,17.33
2018-07-07T20:43:13.562Z,17.31
2018-07-07T20:45:43.112Z,17.28
2018-07-07T20:48:11.782Z,17.23
2018-07-07T20:50:40.629Z,17.18
2018-07-07T20:53:09.332Z,17.16
2018-07-07T20:55:38.132Z,17.13
2018-07-07T20:58:06.975Z,17.09
2018-07-07T21:00:35.596Z,17.12
2018-07-07T21:03:04.277Z,17.08
2018-07-07T21:05:33.053Z,17.07
2018-07-07T21:08:01.733Z,17.06
2018-07-07T21:10:30.446Z,17.04
2018-07-07T21:12:59.152Z,17.05
2018-07-07T21:15:27.901Z,17.02
2018-07-07T21:17:56.576Z,16.98
2018-07-07T21:20:25.242Z,16.98
2018-07-07T21:22:53.964Z,16.96
2018-07-07T21:25:22.613Z,16.95
2018-07-07T21:27:51.276Z,16.96
2018-07-07T21:30:20.072Z,16.92
2018-07-07T21:32:48.665Z,16.92
2018-07-07T21:35:17.295Z,16.90
2018-07-07T21:37:46.006Z,16.92
2018-07-07T21:40:14.801Z,16.03
2018-07-07T21:42:43.649Z,16.90
2018-07-07T21:45:12.335Z,16.92
2018-07-07T21:47:41.042Z,16.92
2018-07-07T21:50:09.740Z,16.88
2018-07-07T21:52:38.431Z,16.89
2018-07-07T21:55:07.360Z,16.91
2018-07-07T21:57:41.327Z,16.91
2018-07-07T22:00:10.068Z,16.88
2018-07-07T22:02:44.018Z,16.85
2018-07-07T22:05:17.738Z,16.87
2018-07-07T22:07:46.385Z,16.87
2018-07-07T22:10:15.139Z,16.85
2018-07-07T22:12:44.046Z,16.81
2018-07-07T22:15:12.975Z,16.84
2018-07-07T22:17:41.689Z,16.86
2018-07-07T22:20:10.484Z,16.83
2018-07-07T22:22:39.256Z,16.82
2018-07-07T22:25:08.016Z,16.80
2018-07-07T22:27:36.756Z,16.76
2018-07-07T22:30:05.458Z,16.72
2018-07-07T22:32:39.289Z,16.64
2018-07-07T22:35:13.094Z,16.70
2018-07-07T22:37:41.889Z,16.71
2018-07-07T22:40:10.544Z,16.68
2018-07-07T22:42:39.360Z,16.62
2018-07-07T22:45:08.176Z,16.62
2018-07-07T22:47:36.842Z,16.62
2018-07-07T22:50:05.495Z,16.60
2018-07-07T22:52:34.263Z,16.58
2018-07-07T22:55:02.910Z,16.58
2018-07-07T22:57:31.677Z,16.55
2018-07-07T23:00:00.339Z,16.55
2018-07-07T23:02:29.429Z,16.54
2018-07-07T23:04:58.508Z,16.54
2018-07-07T23:07:27.167Z,16.53
2018-07-07T23:09:55.878Z,16.52
2018-07-07T23:12:24.472Z,16.50
2018-07-07T23:14:53.209Z,16.47
2018-07-07T23:17:21.890Z,16.45
2018-07-07T23:19:50.616Z,16.42
2018-07-07T23:22:28.263Z,16.41
2018-07-07T23:24:57.251Z,16.41
2018-07-07T23:27:25.932Z,16.32
2018-07-07T23:29:54.648Z,16.33
2018-07-07T23:32:23.222Z,16.31
2018-07-07T23:34:51.863Z,16.26
2018-07-07T23:37:20.502Z,16.21
2018-07-07T23:39:49.138Z,16.13
2018-07-07T23:42:17.854Z,16.09
2018-07-07T23:44:46.577Z,16.05
2018-07-07T23:47:15.128Z,16.03
2018-07-07T23:49:43.889Z,16.01
2018-07-07T23:52:12.484Z,15.97
2018-07-07T23:54:41.253Z,15.97
2018-07-07T23:57:09.952Z,15.92
2018-07-07T23:59:38.607Z,15.86
